sensor_id;sensor_type;location;lat;lon;timestamp;temperature;humidity
6879;DHT22;3478;51.462;7.338;2022-09-09T00:01:35;16.30;99.90
6879;DHT22;3478;51.462;7.338;2022-09-09T00:06:46;16.30;99.90
6879;DHT22;3478;51.462;7.338;2022-09-09T00:11:53;16.30;99.90
6879;DHT22;3478;51.462;7.338;2022-09-09T00:17:01;16.20;99.90
6879;DHT22;3478;51.462;7.338;2022-09-09T00:22:15;16.20;99.90
6879;DHT22;3478;51.462;7.338;2022-09-09T00:27:24;16.20;99.90
6879;DHT22;3478;51.462;7.338;2022-09-09T00:32:30;16.30;99.90
6879;DHT22;3478;51.462;7.338;2022-09-09T00:37:38;16.20;99.90
6879;DHT22;3478;51.462;7.338;2022-09-09T00:42:42;16.20;99.90
6879;DHT22;3478;51.462;7.338;2022-09-09T00:47:46;16.20;99.90
6879;DHT22;3478;51.462;7.338;2022-09-09T00:52:58;16.20;99.90
6879;DHT22;3478;51.462;7.338;2022-09-09T00:58:06;16.20;99.90
6879;DHT22;3478;51.462;7.338;2022-09-09T01:03:22;16.20;99.90
6879;DHT22;3478;51.462;7.338;2022-09-09T01:08:41;16.30;99.90
6879;DHT22;3478;51.462;7.338;2022-09-09T01:13:45;16.30;99.90
6879;DHT22;3478;51.462;7.338;2022-09-09T01:18:53;16.30;99.90
6879;DHT22;3478;51.462;7.338;2022-09-09T01:24:14;16.30;99.90
6879;DHT22;3478;51.462;7.338;2022-09-09T01:29:21;16.30;99.90
6879;DHT22;3478;51.462;7.338;2022-09-09T01:34:27;16.20;99.90
6879;DHT22;3478;51.462;7.338;2022-09-09T01:39:32;16.20;99.90
6879;DHT22;3478;51.462;7.338;2022-09-09T01:44:36;16.20;99.90
6879;DHT22;3478;51.462;7.338;2022-09-09T01:49:39;16.20;99.90
6879;DHT22;3478;51.462;7.338;2022-09-09T01:54:41;16.30;99.90
6879;DHT22;3478;51.462;7.338;2022-09-09T01:59:58;16.40;99.90
6879;DHT22;3478;51.462;7.338;2022-09-09T02:05:11;16.40;99.90
6879;DHT22;3478;51.462;7.338;2022-09-09T02:10:17;16.30;99.90
6879;DHT22;3478;51.462;7.338;2022-09-09T02:15:29;16.40;99.90
6879;DHT22;3478;51.462;7.338;2022-09-09T02:20:35;16.40;99.90
6879;DHT22;3478;51.462;7.338;2022-09-09T02:25:40;16.40;99.90
6879;DHT22;3478;51.462;7.338;2022-09-09T02:30:46;16.30;99.90
6879;DHT22;3478;51.462;7.338;2022-09-09T02:35:54;16.30;99.90
6879;DHT22;3478;51.462;7.338;2022-09-09T02:41:02;16.30;99.90
6879;DHT22;3478;51.462;7.338;2022-09-09T02:46:12;16.30;99.90
6879;DHT22;3478;51.462;7.338;2022-09-09T02:51:23;16.30;99.90
6879;DHT22;3478;51.462;7.338;2022-09-09T02:56:27;16.30;99.90
6879;DHT22;3478;51.462;7.338;2022-09-09T03:01:37;16.30;99.90
6879;DHT22;3478;51.462;7.338;2022-09-09T03:06:40;16.30;99.90
6879;DHT22;3478;51.462;7.338;2022-09-09T03:11:42;16.20;99.90
6879;DHT22;3478;51.462;7.338;2022-09-09T03:16:46;16.20;99.90
6879;DHT22;3478;51.462;7.338;2022-09-09T03:21:48;16.20;99.90
6879;DHT22;3478;51.462;7.338;2022-09-09T03:26:50;16.20;99.90
6879;DHT22;3478;51.462;7.338;2022-09-09T03:31:54;16.20;99.90
6879;DHT22;3478;51.462;7.338;2022-09-09T03:36:56;16.10;99.90
6879;DHT22;3478;51.462;7.338;2022-09-09T03:41:58;16.10;99.90
6879;DHT22;3478;51.462;7.338;2022-09-09T03:47:04;16.00;99.90
6879;DHT22;3478;51.462;7.338;2022-09-09T03:52:08;16.00;99.90
6879;DHT22;3478;51.462;7.338;2022-09-09T03:57:10;16.00;99.90
6879;DHT22;3478;51.462;7.338;2022-09-09T04:02:15;16.00;99.90
6879;DHT22;3478;51.462;7.338;2022-09-09T04:07:17;16.00;99.90
6879;DHT22;3478;51.462;7.338;2022-09-09T04:12:19;16.00;99.90
6879;DHT22;3478;51.462;7.338;2022-09-09T04:17:24;16.10;99.90
6879;DHT22;3478;51.462;7.338;2022-09-09T04:22:26;16.00;99.90
6879;DHT22;3478;51.462;7.338;2022-09-09T04:27:28;16.10;99.90
6879;DHT22;3478;51.462;7.338;2022-09-09T04:32:32;16.10;99.90
6879;DHT22;3478;51.462;7.338;2022-09-09T04:37:34;16.20;99.90
6879;DHT22;3478;51.462;7.338;2022-09-09T04:42:36;16.20;99.90
6879;DHT22;3478;51.462;7.338;2022-09-09T04:47:40;16.20;99.90
6879;DHT22;3478;51.462;7.338;2022-09-09T04:52:43;16.10;99.90
6879;DHT22;3478;51.462;7.338;2022-09-09T04:57:44;16.10;99.90
6879;DHT22;3478;51.462;7.338;2022-09-09T05:02:48;16.10;99.90
6879;DHT22;3478;51.462;7.338;2022-09-09T05:07:50;16.10;99.90
6879;DHT22;3478;51.462;7.338;2022-09-09T05:12:52;16.20;99.90
6879;DHT22;3478;51.462;7.338;2022-09-09T05:17:59;16.20;99.90
6879;DHT22;3478;51.462;7.338;2022-09-09T05:23:01;16.30;99.90
6879;DHT22;3478;51.462;7.338;2022-09-09T05:28:03;16.30;99.90
6879;DHT22;3478;51.462;7.338;2022-09-09T05:33:07;16.30;99.90
6879;DHT22;3478;51.462;7.338;2022-09-09T05:38:10;16.40;99.90
6879;DHT22;3478;51.462;7.338;2022-09-09T05:43:11;16.40;99.90
6879;DHT22;3478;51.462;7.338;2022-09-09T05:48:23;16.50;99.90
6879;DHT22;3478;51.462;7.338;2022-09-09T05:53:25;16.50;99.90
6879;DHT22;3478;51.462;7.338;2022-09-09T05:58:27;16.50;99.90
6879;DHT22;3478;51.462;7.338;2022-09-09T06:03:32;16.60;99.90
6879;DHT22;3478;51.462;7.338;2022-09-09T06:08:35;16.60;99.90
6879;DHT22;3478;51.462;7.338;2022-09-09T06:13:41;16.70;99.90
6879;DHT22;3478;51.462;7.338;2022-09-09T06:18:45;16.80;99.90
6879;DHT22;3478;51.462;7.338;2022-09-09T06:23:49;16.80;99.90
6879;DHT22;3478;51.462;7.338;2022-09-09T06:28:53;16.90;99.90
6879;DHT22;3478;51.462;7.338;2022-09-09T06:33:58;16.90;99.90
6879;DHT22;3478;51.462;7.338;2022-09-09T06:39:00;17.00;99.90
6879;DHT22;3478;51.462;7.338;2022-09-09T06:44:02;17.00;99.90
6879;DHT22;3478;51.462;7.338;2022-09-09T06:49:07;17.10;99.90
6879;DHT22;3478;51.462;7.338;2022-09-09T06:54:10;17.20;99.90
6879;DHT22;3478;51.462;7.338;2022-09-09T06:59:12;17.10;99.90
6879;DHT22;3478;51.462;7.338;2022-09-09T07:04:16;17.00;99.90
6879;DHT22;3478;51.462;7.338;2022-09-09T07:09:18;17.20;99.90
6879;DHT22;3478;51.462;7.338;2022-09-09T07:14:20;17.20;99.90
6879;DHT22;3478;51.462;7.338;2022-09-09T07:19:24;17.20;99.90
6879;DHT22;3478;51.462;7.338;2022-09-09T07:24:26;17.10;99.90
6879;DHT22;3478;51.462;7.338;2022-09-09T07:29:31;17.10;99.90
6879;DHT22;3478;51.462;7.338;2022-09-09T07:34:34;17.30;99.90
6879;DHT22;3478;51.462;7.338;2022-09-09T07:39:36;17.60;99.90
6879;DHT22;3478;51.462;7.338;2022-09-09T07:44:44;17.70;99.90
6879;DHT22;3478;51.462;7.338;2022-09-09T07:49:48;17.60;99.90
6879;DHT22;3478;51.462;7.338;2022-09-09T07:54:50;17.70;99.90
6879;DHT22;3478;51.462;7.338;2022-09-09T07:59:52;17.60;99.90
6879;DHT22;3478;51.462;7.338;2022-09-09T08:04:56;17.70;99.90
6879;DHT22;3478;51.462;7.338;2022-09-09T08:09:58;18.00;99.90
6879;DHT22;3478;51.462;7.338;2022-09-09T08:15:00;18.10;99.90
6879;DHT22;3478;51.462;7.338;2022-09-09T08:20:04;18.00;99.90
6879;DHT22;3478;51.462;7.338;2022-09-09T08:25:09;17.90;99.90
6879;DHT22;3478;51.462;7.338;2022-09-09T08:30:12;18.20;99.90
6879;DHT22;3478;51.462;7.338;2022-09-09T08:35:17;18.40;99.90
6879;DHT22;3478;51.462;7.338;2022-09-09T08:40:26;18.60;99.90
6879;DHT22;3478;51.462;7.338;2022-09-09T08:45:37;18.80;99.90
6879;DHT22;3478;51.462;7.338;2022-09-09T08:50:49;19.00;99.90
6879;DHT22;3478;51.462;7.338;2022-09-09T08:55:54;19.10;99.90
6879;DHT22;3478;51.462;7.338;2022-09-09T09:01:28;18.90;99.90
6879;DHT22;3478;51.462;7.338;2022-09-09T09:06:46;18.90;99.90
6879;DHT22;3478;51.462;7.338;2022-09-09T09:11:53;19.10;99.90
6879;DHT22;3478;51.462;7.338;2022-09-09T09:16:58;19.40;99.90
6879;DHT22;3478;51.462;7.338;2022-09-09T09:22:10;19.50;99.90
6879;DHT22;3478;51.462;7.338;2022-09-09T09:27:22;20.00;99.90
6879;DHT22;3478;51.462;7.338;2022-09-09T09:32:30;20.20;99.90
6879;DHT22;3478;51.462;7.338;2022-09-09T09:37:34;20.40;99.90
6879;DHT22;3478;51.462;7.338;2022-09-09T09:42:37;20.20;99.90
6879;DHT22;3478;51.462;7.338;2022-09-09T09:47:40;20.20;99.90
6879;DHT22;3478;51.462;7.338;2022-09-09T09:52:54;20.00;99.90
6879;DHT22;3478;51.462;7.338;2022-09-09T09:58:01;20.20;99.90
6879;DHT22;3478;51.462;7.338;2022-09-09T10:03:23;20.10;99.90
6879;DHT22;3478;51.462;7.338;2022-09-09T10:08:28;19.60;99.90
6879;DHT22;3478;51.462;7.338;2022-09-09T10:13:36;19.40;99.90
6879;DHT22;3478;51.462;7.338;2022-09-09T10:18:48;19.80;99.90
6879;DHT22;3478;51.462;7.338;2022-09-09T10:24:08;20.70;99.90
6879;DHT22;3478;51.462;7.338;2022-09-09T10:29:24;20.60;99.90
6879;DHT22;3478;51.462;7.338;2022-09-09T10:34:48;20.30;99.90
6879;DHT22;3478;51.462;7.338;2022-09-09T10:40:02;20.60;99.90
6879;DHT22;3478;51.462;7.338;2022-09-09T10:45:17;21.40;99.90
6879;DHT22;3478;51.462;7.338;2022-09-09T10:55:58;22.00;99.90
6879;DHT22;3478;51.462;7.338;2022-09-09T11:01:08;22.40;99.90
6879;DHT22;3478;51.462;7.338;2022-09-09T11:06:15;22.10;99.90
6879;DHT22;3478;51.462;7.338;2022-09-09T11:11:25;21.70;99.90
6879;DHT22;3478;51.462;7.338;2022-09-09T11:16:30;21.40;99.90
6879;DHT22;3478;51.462;7.338;2022-09-09T11:21:46;21.70;99.90
6879;DHT22;3478;51.462;7.338;2022-09-09T11:26:53;22.40;99.90
6879;DHT22;3478;51.462;7.338;2022-09-09T11:32:08;22.00;99.90
6879;DHT22;3478;51.462;7.338;2022-09-09T11:37:31;22.00;99.90
6879;DHT22;3478;51.462;7.338;2022-09-09T11:42:40;21.90;99.90
6879;DHT22;3478;51.462;7.338;2022-09-09T11:47:51;21.50;99.90
6879;DHT22;3478;51.462;7.338;2022-09-09T11:53:19;21.30;99.90
6879;DHT22;3478;51.462;7.338;2022-09-09T11:58:24;21.30;99.90
6879;DHT22;3478;51.462;7.338;2022-09-09T12:03:35;21.20;99.90
6879;DHT22;3478;51.462;7.338;2022-09-09T12:08:42;21.00;99.90
6879;DHT22;3478;51.462;7.338;2022-09-09T12:13:54;20.70;99.90
6879;DHT22;3478;51.462;7.338;2022-09-09T12:19:04;20.60;99.90
6879;DHT22;3478;51.462;7.338;2022-09-09T12:24:09;20.40;99.90
6879;DHT22;3478;51.462;7.338;2022-09-09T12:29:20;20.00;99.90
6879;DHT22;3478;51.462;7.338;2022-09-09T12:34:34;19.30;99.90
6879;DHT22;3478;51.462;7.338;2022-09-09T12:39:40;19.10;99.90
6879;DHT22;3478;51.462;7.338;2022-09-09T12:44:55;19.70;99.90
6879;DHT22;3478;51.462;7.338;2022-09-09T12:49:57;20.30;99.90
6879;DHT22;3478;51.462;7.338;2022-09-09T12:55:02;20.20;99.90
6879;DHT22;3478;51.462;7.338;2022-09-09T13:00:11;20.00;99.90
6879;DHT22;3478;51.462;7.338;2022-09-09T13:05:16;19.60;99.90
6879;DHT22;3478;51.462;7.338;2022-09-09T13:10:24;19.30;99.90
6879;DHT22;3478;51.462;7.338;2022-09-09T13:15:29;19.50;99.90
6879;DHT22;3478;51.462;7.338;2022-09-09T13:20:31;20.60;99.90
6879;DHT22;3478;51.462;7.338;2022-09-09T13:25:33;22.50;99.90
6879;DHT22;3478;51.462;7.338;2022-09-09T13:30:37;24.40;99.90
6879;DHT22;3478;51.462;7.338;2022-09-09T13:35:46;24.40;99.90
6879;DHT22;3478;51.462;7.338;2022-09-09T13:40:57;23.80;99.90
6879;DHT22;3478;51.462;7.338;2022-09-09T13:46:05;22.60;99.90
6879;DHT22;3478;51.462;7.338;2022-09-09T13:51:31;21.60;99.90
6879;DHT22;3478;51.462;7.338;2022-09-09T13:56:35;20.70;99.90
6879;DHT22;3478;51.462;7.338;2022-09-09T14:01:38;19.80;99.90
6879;DHT22;3478;51.462;7.338;2022-09-09T14:06:42;19.10;99.90
6879;DHT22;3478;51.462;7.338;2022-09-09T14:11:44;18.80;99.90
6879;DHT22;3478;51.462;7.338;2022-09-09T14:16:48;18.50;99.90
6879;DHT22;3478;51.462;7.338;2022-09-09T14:21:50;19.00;99.90
6879;DHT22;3478;51.462;7.338;2022-09-09T14:26:52;20.30;99.90
6879;DHT22;3478;51.462;7.338;2022-09-09T14:31:55;22.40;99.90
6879;DHT22;3478;51.462;7.338;2022-09-09T14:36:57;23.50;99.90
6879;DHT22;3478;51.462;7.338;2022-09-09T14:41:59;25.10;99.90
6879;DHT22;3478;51.462;7.338;2022-09-09T14:47:04;24.30;99.90
6879;DHT22;3478;51.462;7.338;2022-09-09T14:52:06;22.70;99.90
6879;DHT22;3478;51.462;7.338;2022-09-09T14:57:09;21.40;99.90
6879;DHT22;3478;51.462;7.338;2022-09-09T15:02:13;20.40;99.90
6879;DHT22;3478;51.462;7.338;2022-09-09T15:07:15;20.10;99.90
6879;DHT22;3478;51.462;7.338;2022-09-09T15:12:17;20.20;99.90
6879;DHT22;3478;51.462;7.338;2022-09-09T15:17:22;21.00;99.90
6879;DHT22;3478;51.462;7.338;2022-09-09T15:22:27;21.20;99.90
6879;DHT22;3478;51.462;7.338;2022-09-09T15:27:29;20.60;99.90
6879;DHT22;3478;51.462;7.338;2022-09-09T15:32:33;20.30;99.90
6879;DHT22;3478;51.462;7.338;2022-09-09T15:37:35;19.80;99.90
6879;DHT22;3478;51.462;7.338;2022-09-09T15:42:37;19.00;99.90
6879;DHT22;3478;51.462;7.338;2022-09-09T15:47:41;18.30;99.90
6879;DHT22;3478;51.462;7.338;2022-09-09T15:52:44;17.80;99.90
6879;DHT22;3478;51.462;7.338;2022-09-09T15:57:46;17.50;99.90
6879;DHT22;3478;51.462;7.338;2022-09-09T16:02:49;17.20;99.90
6879;DHT22;3478;51.462;7.338;2022-09-09T16:07:52;17.20;99.90
6879;DHT22;3478;51.462;7.338;2022-09-09T16:12:54;17.20;99.90
6879;DHT22;3478;51.462;7.338;2022-09-09T16:17:58;17.30;99.90
6879;DHT22;3478;51.462;7.338;2022-09-09T16:23:00;17.40;99.90
6879;DHT22;3478;51.462;7.338;2022-09-09T16:28:02;17.50;99.90
6879;DHT22;3478;51.462;7.338;2022-09-09T16:33:05;17.60;99.90
6879;DHT22;3478;51.462;7.338;2022-09-09T16:38:08;17.60;99.90
6879;DHT22;3478;51.462;7.338;2022-09-09T16:43:10;17.60;99.90
6879;DHT22;3478;51.462;7.338;2022-09-09T16:48:14;17.60;99.90
6879;DHT22;3478;51.462;7.338;2022-09-09T16:53:16;17.50;99.90
6879;DHT22;3478;51.462;7.338;2022-09-09T16:58:18;17.10;99.90
6879;DHT22;3478;51.462;7.338;2022-09-09T17:03:21;16.90;99.90
6879;DHT22;3478;51.462;7.338;2022-09-09T17:08:24;16.90;99.90
6879;DHT22;3478;51.462;7.338;2022-09-09T17:13:26;17.10;99.90
6879;DHT22;3478;51.462;7.338;2022-09-09T17:18:29;17.20;99.90
6879;DHT22;3478;51.462;7.338;2022-09-09T17:23:32;17.20;99.90
6879;DHT22;3478;51.462;7.338;2022-09-09T17:28:34;17.20;99.90
6879;DHT22;3478;51.462;7.338;2022-09-09T17:33:39;17.20;99.90
6879;DHT22;3478;51.462;7.338;2022-09-09T17:38:42;17.00;99.90
6879;DHT22;3478;51.462;7.338;2022-09-09T17:43:45;16.90;99.90
6879;DHT22;3478;51.462;7.338;2022-09-09T17:48:54;16.70;99.90
6879;DHT22;3478;51.462;7.338;2022-09-09T17:53:58;16.60;99.90
6879;DHT22;3478;51.462;7.338;2022-09-09T17:59:03;16.70;99.90
6879;DHT22;3478;51.462;7.338;2022-09-09T18:04:08;16.60;99.90
6879;DHT22;3478;51.462;7.338;2022-09-09T18:09:14;16.70;99.90
6879;DHT22;3478;51.462;7.338;2022-09-09T18:14:19;16.70;99.90
6879;DHT22;3478;51.462;7.338;2022-09-09T18:19:25;16.80;99.90
6879;DHT22;3478;51.462;7.338;2022-09-09T18:24:28;16.80;99.90
6879;DHT22;3478;51.462;7.338;2022-09-09T18:29:31;16.80;99.90
6879;DHT22;3478;51.462;7.338;2022-09-09T18:34:34;16.80;99.90
6879;DHT22;3478;51.462;7.338;2022-09-09T18:39:36;16.80;99.90
6879;DHT22;3478;51.462;7.338;2022-09-09T18:44:38;16.70;99.90
6879;DHT22;3478;51.462;7.338;2022-09-09T18:49:42;16.70;99.90
6879;DHT22;3478;51.462;7.338;2022-09-09T18:54:45;16.70;99.90
6879;DHT22;3478;51.462;7.338;2022-09-09T18:59:50;16.70;99.90
6879;DHT22;3478;51.462;7.338;2022-09-09T19:04:55;16.70;99.90
6879;DHT22;3478;51.462;7.338;2022-09-09T19:09:57;16.60;99.90
6879;DHT22;3478;51.462;7.338;2022-09-09T19:15:01;16.60;99.90
6879;DHT22;3478;51.462;7.338;2022-09-09T19:20:06;16.50;99.90
6879;DHT22;3478;51.462;7.338;2022-09-09T19:25:09;16.50;99.90
6879;DHT22;3478;51.462;7.338;2022-09-09T19:30:11;16.50;99.90
6879;DHT22;3478;51.462;7.338;2022-09-09T19:35:15;16.40;99.90
6879;DHT22;3478;51.462;7.338;2022-09-09T19:40:18;16.40;99.90
6879;DHT22;3478;51.462;7.338;2022-09-09T19:45:21;16.40;99.90
6879;DHT22;3478;51.462;7.338;2022-09-09T19:50:25;16.40;99.90
6879;DHT22;3478;51.462;7.338;2022-09-09T19:55:28;16.30;99.90
6879;DHT22;3478;51.462;7.338;2022-09-09T20:00:32;16.30;99.90
6879;DHT22;3478;51.462;7.338;2022-09-09T20:05:36;16.30;99.90
6879;DHT22;3478;51.462;7.338;2022-09-09T20:10:38;16.30;99.90
6879;DHT22;3478;51.462;7.338;2022-09-09T20:15:40;16.30;99.90
6879;DHT22;3478;51.462;7.338;2022-09-09T20:20:44;16.30;99.90
6879;DHT22;3478;51.462;7.338;2022-09-09T20:25:46;16.30;99.90
6879;DHT22;3478;51.462;7.338;2022-09-09T20:30:48;16.30;99.90
6879;DHT22;3478;51.462;7.338;2022-09-09T20:35:54;16.30;99.90
6879;DHT22;3478;51.462;7.338;2022-09-09T20:40:56;16.30;99.90
6879;DHT22;3478;51.462;7.338;2022-09-09T20:46:02;16.40;99.90
6879;DHT22;3478;51.462;7.338;2022-09-09T20:51:06;16.40;99.90
6879;DHT22;3478;51.462;7.338;2022-09-09T20:56:10;16.40;99.90
6879;DHT22;3478;51.462;7.338;2022-09-09T21:01:14;16.40;99.90
6879;DHT22;3478;51.462;7.338;2022-09-09T21:06:18;16.30;99.90
6879;DHT22;3478;51.462;7.338;2022-09-09T21:11:20;16.30;99.90
6879;DHT22;3478;51.462;7.338;2022-09-09T21:16:23;16.40;99.90
6879;DHT22;3478;51.462;7.338;2022-09-09T21:21:27;16.40;99.90
6879;DHT22;3478;51.462;7.338;2022-09-09T21:26:29;16.40;99.90
6879;DHT22;3478;51.462;7.338;2022-09-09T21:31:31;16.30;99.90
6879;DHT22;3478;51.462;7.338;2022-09-09T21:36:34;16.30;99.90
6879;DHT22;3478;51.462;7.338;2022-09-09T21:41:36;16.40;99.90
6879;DHT22;3478;51.462;7.338;2022-09-09T21:46:38;16.40;99.90
6879;DHT22;3478;51.462;7.338;2022-09-09T21:51:44;16.40;99.90
6879;DHT22;3478;51.462;7.338;2022-09-09T21:56:49;16.40;99.90
6879;DHT22;3478;51.462;7.338;2022-09-09T22:01:51;16.30;99.90
6879;DHT22;3478;51.462;7.338;2022-09-09T22:06:55;16.40;99.90
6879;DHT22;3478;51.462;7.338;2022-09-09T22:11:57;16.40;99.90
6879;DHT22;3478;51.462;7.338;2022-09-09T22:16:59;16.40;99.90
6879;DHT22;3478;51.462;7.338;2022-09-09T22:22:03;16.40;99.90
6879;DHT22;3478;51.462;7.338;2022-09-09T22:27:05;16.40;99.90
6879;DHT22;3478;51.462;7.338;2022-09-09T22:32:07;16.30;99.90
6879;DHT22;3478;51.462;7.338;2022-09-09T22:37:11;16.30;99.90
6879;DHT22;3478;51.462;7.338;2022-09-09T22:42:13;16.20;99.90
6879;DHT22;3478;51.462;7.338;2022-09-09T22:47:15;16.20;99.90
6879;DHT22;3478;51.462;7.338;2022-09-09T22:52:18;16.10;99.90
6879;DHT22;3478;51.462;7.338;2022-09-09T22:57:20;16.10;99.90
6879;DHT22;3478;51.462;7.338;2022-09-09T23:02:22;16.00;99.90
6879;DHT22;3478;51.462;7.338;2022-09-09T23:07:27;16.00;99.90
6879;DHT22;3478;51.462;7.338;2022-09-09T23:12:29;15.90;99.90
6879;DHT22;3478;51.462;7.338;2022-09-09T23:17:31;15.90;99.90
6879;DHT22;3478;51.462;7.338;2022-09-09T23:22:35;15.80;99.90
6879;DHT22;3478;51.462;7.338;2022-09-09T23:27:38;15.80;99.90
6879;DHT22;3478;51.462;7.338;2022-09-09T23:32:41;15.80;99.90
6879;DHT22;3478;51.462;7.338;2022-09-09T23:37:47;15.80;99.90
6879;DHT22;3478;51.462;7.338;2022-09-09T23:42:52;15.80;99.90
6879;DHT22;3478;51.462;7.338;2022-09-09T23:47:54;15.80;99.90
6879;DHT22;3478;51.462;7.338;2022-09-09T23:52:58;15.80;99.90
6879;DHT22;3478;51.462;7.338;2022-09-09T23:58:01;15.80;99.90
